createdAt,value
2019-06-01T00:00:12.237Z,81.16
2019-06-01T00:01:49.241Z,81.52
2019-06-01T00:03:25.491Z,82.03
2019-06-01T00:05:00.810Z,82.22
2019-06-01T00:06:35.657Z,82.38
2019-06-01T00:08:12.036Z,82.38
2019-06-01T00:09:47.222Z,83.05
2019-06-01T00:11:22.609Z,83.12
2019-06-01T00:12:57.254Z,82.93
2019-06-01T00:14:32.499Z,83.05
2019-06-01T00:16:07.133Z,83.05
2019-06-01T00:17:42.399Z,83.05
2019-06-01T00:19:17.013Z,82.63
2019-06-01T00:20:52.748Z,82.81
2019-06-01T00:22:27.464Z,82.71
2019-06-01T00:24:02.723Z,82.73
2019-06-01T00:25:37.346Z,82.74
2019-06-01T00:27:12.589Z,83.44
2019-06-01T00:28:47.886Z,83.21
2019-06-01T00:30:27.057Z,83.02
2019-06-01T00:32:00.746Z,82.71
2019-06-01T00:33:36.019Z,82.57
2019-06-01T00:35:10.651Z,82.64
2019-06-01T00:36:45.879Z,82.89
2019-06-01T00:38:20.520Z,82.77
2019-06-01T00:39:55.856Z,83.50
2019-06-01T00:41:30.747Z,83.50
2019-06-01T00:43:06.030Z,83.23
2019-06-01T00:44:40.664Z,83.19
2019-06-01T00:46:15.916Z,83.12
2019-06-01T00:47:50.931Z,83.07
2019-06-01T00:49:26.334Z,83.33
2019-06-01T00:51:00.965Z,83.46
2019-06-01T00:52:37.401Z,84.03
2019-06-01T00:54:12.071Z,83.63
2019-06-01T00:55:49.447Z,83.59
2019-06-01T00:57:24.224Z,83.76
2019-06-01T00:58:59.452Z,83.93
2019-06-01T01:00:43.194Z,84.06
2019-06-01T01:02:11.115Z,84.29
2019-06-01T01:03:46.067Z,84.35
2019-06-01T01:05:22.264Z,84.49
2019-06-01T01:06:56.933Z,84.36
2019-06-01T01:08:32.179Z,84.39
2019-06-01T01:10:07.389Z,84.21
2019-06-01T01:11:42.624Z,84.64
2019-06-01T01:13:19.700Z,84.44
2019-06-01T01:14:55.399Z,84.47
2019-06-01T01:16:30.100Z,84.88
2019-06-01T01:18:06.305Z,85.08
2019-06-01T01:19:40.938Z,84.86
2019-06-01T01:21:16.292Z,84.73
2019-06-01T01:22:52.157Z,84.72
2019-06-01T01:24:28.700Z,84.95
2019-06-01T01:26:03.361Z,85.22
2019-06-01T01:27:38.598Z,85.35
2019-06-01T01:29:13.253Z,85.28
2019-06-01T01:31:05.079Z,85.21
2019-06-01T01:32:24.846Z,85.61
2019-06-01T01:34:00.134Z,86.05
2019-06-01T01:35:34.817Z,85.83
2019-06-01T01:37:15.425Z,86.31
2019-06-01T01:38:52.287Z,86.23
2019-06-01T01:40:30.107Z,86.64
2019-06-01T01:42:05.385Z,86.54
2019-06-01T01:43:40.051Z,86.37
2019-06-01T01:45:15.491Z,86.67
2019-06-01T01:46:50.717Z,86.51
2019-06-01T01:48:26.084Z,86.77
2019-06-01T01:50:00.738Z,86.83
2019-06-01T01:51:35.973Z,87.16
2019-06-01T01:53:10.630Z,87.06
2019-06-01T01:54:45.925Z,87.26
2019-06-01T01:56:20.572Z,87.49
2019-06-01T01:57:55.892Z,87.33
2019-06-01T01:59:30.565Z,87.61
2019-06-01T02:01:21.341Z,87.68
2019-06-01T02:02:42.257Z,87.48
2019-06-01T02:04:17.579Z,87.67
2019-06-01T02:05:52.933Z,87.86
2019-06-01T02:07:28.291Z,88.12
2019-06-01T02:09:03.040Z,88.43
2019-06-01T02:10:40.177Z,88.25
2019-06-01T02:12:14.833Z,88.36
2019-06-01T02:13:51.481Z,88.58
2019-06-01T02:15:26.282Z,88.73
2019-06-01T02:17:02.494Z,88.71
2019-06-01T02:18:37.403Z,88.81
2019-06-01T02:20:12.824Z,88.71
2019-06-01T02:21:47.467Z,88.72
2019-06-01T02:23:22.691Z,88.73
2019-06-01T02:24:57.839Z,88.94
2019-06-01T02:26:33.167Z,88.94
2019-06-01T02:28:07.898Z,89.14
2019-06-01T02:29:43.209Z,89.42
2019-06-01T02:31:17.883Z,89.41
2019-06-01T02:32:53.867Z,89.49
2019-06-01T02:34:28.633Z,89.74
2019-06-01T02:36:05.263Z,89.75
2019-06-01T02:37:40.240Z,89.61
2019-06-01T02:39:15.850Z,89.60
2019-06-01T02:40:51.113Z,89.71
2019-06-01T02:42:26.378Z,89.73
2019-06-01T02:44:01.698Z,89.93
2019-06-01T02:45:37.449Z,89.87
2019-06-01T02:47:12.103Z,90.01
2019-06-01T02:48:47.354Z,90.01
2019-06-01T02:50:22.099Z,90.28
2019-06-01T02:51:57.329Z,90.25
2019-06-01T02:53:32.174Z,90.72
2019-06-01T02:55:07.888Z,90.36
2019-06-01T02:56:42.546Z,90.62
2019-06-01T02:58:17.905Z,90.38
2019-06-01T02:59:52.573Z,90.37
2019-06-01T03:01:34.708Z,90.37
2019-06-01T03:03:10.016Z,90.83
2019-06-01T03:04:44.678Z,90.44
2019-06-01T03:06:20.152Z,90.62
2019-06-01T03:07:55.203Z,90.81
2019-06-01T03:09:31.230Z,90.96
2019-06-01T03:11:06.565Z,91.14
2019-06-01T03:12:45.417Z,91.14
2019-06-01T03:14:21.334Z,91.06
2019-06-01T03:15:58.390Z,90.98
2019-06-01T03:17:33.055Z,90.98
2019-06-01T03:19:08.365Z,90.84
2019-06-01T03:20:44.687Z,90.98
2019-06-01T03:22:21.111Z,90.78
2019-06-01T03:23:57.284Z,90.78
2019-06-01T03:25:32.893Z,90.76
2019-06-01T03:27:08.264Z,90.65
2019-06-01T03:28:45.000Z,90.72
2019-06-01T03:30:30.178Z,90.67
2019-06-01T03:32:24.191Z,90.39
2019-06-01T03:33:41.938Z,90.36
2019-06-01T03:35:17.204Z,90.40
2019-06-01T03:36:52.050Z,90.14
2019-06-01T03:38:27.304Z,89.87
2019-06-01T03:40:05.671Z,89.55
2019-06-01T03:41:38.992Z,89.51
2019-06-01T03:43:14.450Z,89.17
2019-06-01T03:44:49.704Z,89.02
2019-06-01T03:46:24.361Z,88.75
2019-06-01T03:48:00.519Z,88.53
2019-06-01T03:49:35.224Z,87.86
2019-06-01T03:51:10.464Z,87.85
2019-06-01T03:52:45.134Z,87.63
2019-06-01T03:54:21.361Z,87.26
2019-06-01T03:55:56.046Z,86.84
2019-06-01T03:57:31.286Z,86.37
2019-06-01T03:59:07.151Z,86.56
2019-06-01T04:00:42.555Z,86.35
2019-06-01T04:02:32.251Z,85.82
2019-06-01T04:03:55.461Z,84.61
2019-06-01T04:05:30.140Z,84.61
2019-06-01T04:07:06.420Z,84.63
2019-06-01T04:08:41.009Z,84.36
2019-06-01T04:10:16.260Z,84.04
2019-06-01T04:11:52.368Z,83.13
2019-06-01T04:13:27.672Z,83.15
2019-06-01T04:15:08.384Z,82.05
2019-06-01T04:16:42.736Z,81.45
2019-06-01T04:18:17.463Z,81.25
2019-06-01T04:19:52.701Z,80.96
2019-06-01T04:21:27.360Z,81.38
2019-06-01T04:23:04.473Z,82.41
2019-06-01T04:24:38.985Z,81.53
2019-06-01T04:26:14.235Z,80.98
2019-06-01T04:27:48.873Z,79.35
2019-06-01T04:29:24.146Z,78.34
2019-06-01T04:30:58.806Z,77.30
2019-06-01T04:32:48.974Z,77.82
2019-06-01T04:34:11.026Z,77.38
2019-06-01T04:35:46.434Z,77.03
2019-06-01T04:37:21.099Z,76.60
2019-06-01T04:38:56.342Z,76.43
2019-06-01T04:40:30.983Z,76.04
2019-06-01T04:42:07.624Z,75.30
2019-06-01T04:43:42.359Z,74.64
2019-06-01T04:45:17.858Z,76.42
2019-06-01T04:46:52.501Z,76.42
2019-06-01T04:48:27.762Z,74.03
2019-06-01T04:50:02.412Z,63.40
2019-06-01T04:51:38.703Z,63.40
2019-06-01T04:53:13.531Z,56.71
2019-06-01T04:54:48.866Z,56.91
2019-06-01T04:56:23.511Z,58.21
2019-06-01T04:57:58.821Z,56.07
2019-06-01T04:59:33.474Z,50.79
2019-06-01T05:01:09.045Z,49.76
2019-06-01T05:02:43.838Z,49.46
2019-06-01T05:04:20.234Z,48.94
2019-06-01T05:05:54.949Z,44.22
2019-06-01T05:07:30.168Z,41.74
2019-06-01T05:09:07.633Z,41.23
2019-06-01T05:10:43.931Z,39.30
2019-06-01T05:12:18.620Z,38.38
2019-06-01T05:13:53.862Z,36.93
2019-06-01T05:15:28.503Z,37.82
2019-06-01T05:17:03.777Z,38.38
2019-06-01T05:18:38.414Z,34.89
2019-06-01T05:20:14.756Z,35.04
2019-06-01T05:21:49.480Z,36.86
2019-06-01T05:23:24.721Z,36.17
2019-06-01T05:24:59.392Z,35.24
2019-06-01T05:26:34.628Z,37.87
2019-06-01T05:28:09.373Z,36.28
2019-06-01T05:29:45.751Z,36.19
2019-06-01T05:31:25.095Z,32.96
2019-06-01T05:32:57.458Z,31.04
2019-06-01T05:34:32.117Z,31.24
2019-06-01T05:36:08.009Z,34.29
2019-06-01T05:37:42.791Z,34.24
2019-06-01T05:39:18.783Z,32.84
2019-06-01T05:40:53.557Z,34.57
2019-06-01T05:42:28.816Z,32.44
2019-06-01T05:44:05.422Z,35.07
2019-06-01T05:45:40.666Z,33.62
2019-06-01T05:47:16.243Z,32.50
2019-06-01T05:48:52.673Z,31.87
2019-06-01T05:50:27.277Z,29.60
2019-06-01T05:52:02.514Z,28.92
2019-06-01T05:53:37.207Z,29.11
2019-06-01T05:55:12.936Z,28.59
2019-06-01T05:56:47.630Z,26.52
2019-06-01T05:58:22.869Z,28.04
2019-06-01T05:59:57.534Z,28.32
2019-06-01T06:01:32.754Z,29.19
2019-06-01T06:03:07.529Z,27.25
2019-06-01T06:04:42.767Z,27.16
2019-06-01T06:06:17.753Z,25.28
2019-06-01T06:07:53.036Z,27.33
2019-06-01T06:09:27.741Z,27.26
2019-06-01T06:11:02.997Z,29.24
2019-06-01T06:12:37.824Z,24.94
2019-06-01T06:14:13.390Z,26.85
2019-06-01T06:15:49.014Z,26.43
2019-06-01T06:17:24.532Z,26.24
2019-06-01T06:18:59.321Z,26.88
2019-06-01T06:20:34.609Z,24.21
2019-06-01T06:22:09.288Z,27.02
2019-06-01T06:23:45.592Z,26.87
2019-06-01T06:25:20.347Z,30.01
2019-06-01T06:26:55.568Z,29.62
2019-06-01T06:28:30.293Z,26.67
2019-06-01T06:30:06.703Z,26.65
2019-06-01T06:31:41.336Z,26.01
2019-06-01T06:33:17.346Z,26.51
2019-06-01T06:34:52.088Z,24.12
2019-06-01T06:36:27.349Z,24.96
2019-06-01T06:38:02.088Z,21.37
2019-06-01T06:39:37.315Z,21.10
2019-06-01T06:41:12.039Z,24.27
2019-06-01T06:42:47.379Z,22.94
2019-06-01T06:44:22.652Z,22.54
2019-06-01T06:45:57.989Z,22.80
2019-06-01T06:47:32.742Z,21.39
2019-06-01T06:49:09.987Z,21.63
2019-06-01T06:50:44.310Z,21.64
2019-06-01T06:52:19.599Z,23.61
2019-06-01T06:53:54.222Z,22.07
2019-06-01T06:55:29.450Z,20.99
2019-06-01T06:57:04.178Z,20.77
2019-06-01T06:58:39.395Z,19.40
2019-06-01T07:00:14.498Z,21.29
2019-06-01T07:01:49.743Z,21.95
2019-06-01T07:03:25.182Z,22.43
2019-06-01T07:05:00.482Z,20.58
2019-06-01T07:06:35.267Z,18.89
2019-06-01T07:08:13.132Z,23.08
2019-06-01T07:09:47.759Z,21.62
2019-06-01T07:11:23.439Z,23.99
2019-06-01T07:12:58.202Z,24.44
2019-06-01T07:14:33.627Z,21.97
2019-06-01T07:16:08.279Z,25.37
2019-06-01T07:17:43.517Z,28.47
2019-06-01T07:19:19.352Z,27.83
2019-06-01T07:20:54.825Z,28.39
2019-06-01T07:22:29.589Z,29.07
2019-06-01T07:24:04.995Z,27.82
2019-06-01T07:25:39.668Z,30.52
2019-06-01T07:27:14.944Z,34.29
2019-06-01T07:28:49.553Z,33.63
2019-06-01T07:30:24.810Z,34.25
2019-06-01T07:31:59.453Z,35.58
2019-06-01T07:33:34.742Z,37.58
2019-06-01T07:35:09.421Z,36.36
2019-06-01T07:36:44.733Z,30.82
2019-06-01T07:38:20.248Z,26.41
2019-06-01T07:39:55.501Z,23.90
2019-06-01T07:41:30.190Z,22.71
2019-06-01T07:43:05.413Z,23.15
2019-06-01T07:44:40.061Z,21.06
2019-06-01T07:46:15.286Z,21.49
2019-06-01T07:47:49.957Z,26.12
2019-06-01T07:49:25.200Z,24.10
2019-06-01T07:50:59.841Z,22.84
2019-06-01T07:52:35.135Z,20.56
2019-06-01T07:54:09.886Z,23.25
2019-06-01T07:55:45.206Z,22.54
2019-06-01T07:57:19.852Z,28.06
2019-06-01T07:58:55.049Z,25.38
2019-06-01T08:00:33.053Z,22.55
2019-06-01T08:02:09.431Z,20.68
2019-06-01T08:03:44.049Z,28.70
2019-06-01T08:05:19.722Z,26.29
2019-06-01T08:06:54.429Z,21.68
2019-06-01T08:08:40.723Z,29.69
2019-06-01T08:10:17.799Z,26.15
2019-06-01T08:11:52.463Z,22.60
2019-06-01T08:13:32.241Z,20.43
2019-06-01T08:15:04.808Z,20.66
2019-06-01T08:16:40.010Z,20.65
2019-06-01T08:18:14.663Z,19.44
2019-06-01T08:19:51.857Z,21.80
2019-06-01T08:21:26.247Z,18.61
2019-06-01T08:23:01.470Z,23.39
2019-06-01T08:24:36.166Z,25.65
2019-06-01T08:26:11.393Z,21.47
2019-06-01T08:27:46.045Z,20.54
2019-06-01T08:29:22.601Z,20.64
2019-06-01T08:30:57.420Z,18.31
2019-06-01T08:32:32.941Z,26.54
2019-06-01T08:34:07.772Z,26.79
2019-06-01T08:35:43.070Z,31.77
2019-06-01T08:37:17.726Z,32.86
2019-06-01T08:38:52.974Z,30.14
2019-06-01T08:40:27.667Z,33.51
2019-06-01T08:42:02.998Z,31.68
2019-06-01T08:43:38.348Z,31.70
2019-06-01T08:45:14.172Z,35.69
2019-06-01T08:46:48.835Z,37.33
2019-06-01T08:48:25.558Z,29.04
2019-06-01T08:50:00.418Z,27.28
2019-06-01T08:51:35.656Z,26.54
2019-06-01T08:53:10.293Z,26.62
2019-06-01T08:54:45.515Z,28.66
2019-06-01T08:56:21.939Z,30.94
2019-06-01T08:57:57.081Z,30.96
2019-06-01T08:59:32.580Z,32.12
2019-06-01T09:01:07.941Z,31.33
2019-06-01T09:02:42.608Z,28.84
2019-06-01T09:04:17.840Z,31.86
2019-06-01T09:05:52.570Z,32.25
2019-06-01T09:07:29.013Z,32.59
2019-06-01T09:09:04.690Z,30.32
2019-06-01T09:10:39.920Z,31.26
2019-06-01T09:12:14.629Z,29.61
2019-06-01T09:13:52.298Z,32.46
2019-06-01T09:15:27.578Z,33.82
2019-06-01T09:17:03.002Z,32.23
2019-06-01T09:18:37.663Z,33.53
2019-06-01T09:20:13.240Z,31.72
2019-06-01T09:21:47.899Z,32.43
2019-06-01T09:23:23.135Z,31.63
2019-06-01T09:24:57.884Z,31.83
2019-06-01T09:26:34.165Z,33.24
2019-06-01T09:28:11.850Z,31.63
2019-06-01T09:29:48.157Z,30.18
2019-06-01T09:31:22.784Z,31.44
2019-06-01T09:32:59.161Z,29.87
2019-06-01T09:34:34.509Z,31.76
2019-06-01T09:36:09.869Z,34.17
2019-06-01T09:37:45.850Z,33.56
2019-06-01T09:39:21.308Z,34.33
2019-06-01T09:40:56.028Z,33.13
2019-06-01T09:42:33.262Z,34.58
2019-06-01T09:44:08.015Z,33.34
2019-06-01T09:45:43.316Z,35.78
2019-06-01T09:47:18.077Z,33.19
2019-06-01T09:48:53.335Z,32.59
2019-06-01T09:50:29.178Z,32.93
2019-06-01T09:52:04.510Z,34.38
2019-06-01T09:53:39.242Z,31.68
2019-06-01T09:55:14.996Z,34.40
2019-06-01T09:56:49.694Z,35.24
2019-06-01T09:58:24.923Z,34.03
2019-06-01T09:59:59.582Z,33.75
2019-06-01T10:01:34.897Z,34.46
2019-06-01T10:03:09.519Z,34.99
2019-06-01T10:04:44.773Z,33.41
2019-06-01T10:06:19.390Z,31.96
2019-06-01T10:07:54.646Z,31.20
2019-06-01T10:09:29.532Z,32.13
2019-06-01T10:11:04.913Z,32.49
2019-06-01T10:12:39.563Z,32.00
2019-06-01T10:14:14.812Z,33.74
2019-06-01T10:15:49.537Z,33.10
2019-06-01T10:17:24.810Z,34.42
2019-06-01T10:18:59.534Z,34.18
2019-06-01T10:20:34.876Z,34.53
2019-06-01T10:22:09.586Z,32.73
2019-06-01T10:23:48.962Z,33.03
2019-06-01T10:25:21.334Z,33.05
2019-06-01T10:26:56.553Z,33.43
2019-06-01T10:28:31.684Z,35.44
2019-06-01T10:30:07.432Z,34.95
2019-06-01T10:31:43.176Z,36.79
2019-06-01T10:33:18.411Z,37.18
2019-06-01T10:34:53.163Z,35.69
2019-06-01T10:36:28.420Z,35.58
2019-06-01T10:38:03.045Z,35.23
2019-06-01T10:39:39.426Z,34.99
2019-06-01T10:41:14.171Z,35.77
2019-06-01T10:42:49.419Z,36.28
2019-06-01T10:44:24.065Z,36.07
2019-06-01T10:45:59.309Z,36.06
2019-06-01T10:47:33.969Z,35.56
2019-06-01T10:49:09.263Z,35.49
2019-06-01T10:50:43.943Z,34.06
2019-06-01T10:52:19.188Z,34.00
2019-06-01T10:53:53.897Z,34.22
2019-06-01T10:55:29.130Z,34.51
2019-06-01T10:57:04.173Z,34.21
2019-06-01T10:58:56.684Z,35.73
2019-06-01T11:00:16.513Z,35.93
2019-06-01T11:01:51.821Z,35.75
2019-06-01T11:03:26.476Z,34.78
2019-06-01T11:05:01.723Z,35.91
2019-06-01T11:06:42.512Z,34.68
2019-06-01T11:08:13.271Z,34.37
2019-06-01T11:09:48.017Z,34.23
2019-06-01T11:11:24.721Z,35.38
2019-06-01T11:12:59.353Z,35.21
2019-06-01T11:14:34.839Z,34.40
2019-06-01T11:16:10.614Z,33.75
2019-06-01T11:17:45.900Z,34.89
2019-06-01T11:19:20.536Z,34.55
2019-06-01T11:20:55.828Z,35.86
2019-06-01T11:22:30.575Z,36.40
2019-06-01T11:24:06.150Z,37.68
2019-06-01T11:25:41.638Z,37.09
2019-06-01T11:27:17.053Z,37.97
2019-06-01T11:28:51.953Z,38.15
2019-06-01T11:30:27.337Z,37.60
2019-06-01T11:32:02.017Z,38.15
2019-06-01T11:33:38.315Z,37.11
2019-06-01T11:35:13.050Z,36.87
2019-06-01T11:37:04.871Z,37.08
2019-06-01T11:38:25.680Z,37.68
2019-06-01T11:40:00.934Z,38.08
2019-06-01T11:41:36.393Z,37.20
2019-06-01T11:43:11.650Z,37.05
2019-06-01T11:44:46.377Z,36.96
2019-06-01T11:46:21.661Z,37.57
2019-06-01T11:47:56.298Z,37.42
2019-06-01T11:49:31.548Z,38.24
2019-06-01T11:51:06.248Z,38.51
2019-06-01T11:52:43.229Z,38.03
2019-06-01T11:54:18.087Z,37.74
2019-06-01T11:55:53.615Z,39.37
2019-06-01T11:57:28.261Z,39.88
2019-06-01T11:59:03.487Z,39.18
2019-06-01T12:00:39.546Z,39.80
2019-06-01T12:02:15.245Z,39.06
2019-06-01T12:03:49.905Z,39.32
2019-06-01T12:05:25.216Z,39.01
2019-06-01T12:07:16.206Z,38.29
2019-06-01T12:08:38.038Z,38.41
2019-06-01T12:10:13.364Z,38.10
2019-06-01T12:11:50.084Z,38.50
2019-06-01T12:13:25.169Z,39.77
2019-06-01T12:15:00.409Z,40.36
2019-06-01T12:16:36.324Z,40.74
2019-06-01T12:18:11.674Z,40.60
2019-06-01T12:19:46.918Z,40.82
2019-06-01T12:21:22.329Z,40.65
2019-06-01T12:22:57.002Z,40.16
2019-06-01T12:24:32.237Z,39.43
2019-06-01T12:26:06.910Z,39.95
2019-06-01T12:27:43.366Z,40.02
2019-06-01T12:29:18.383Z,40.47
2019-06-01T12:30:53.628Z,41.07
2019-06-01T12:32:28.257Z,40.44
2019-06-01T12:34:03.484Z,40.57
2019-06-01T12:35:39.885Z,41.86
2019-06-01T12:37:15.136Z,40.86
2019-06-01T12:38:53.161Z,41.44
2019-06-01T12:40:28.455Z,41.72
2019-06-01T12:42:03.082Z,41.07
2019-06-01T12:43:39.434Z,41.58
2019-06-01T12:45:22.454Z,41.00
2019-06-01T12:46:55.043Z,40.62
2019-06-01T12:48:29.676Z,41.68
2019-06-01T12:50:06.221Z,40.54
2019-06-01T12:51:42.374Z,40.81
2019-06-01T12:53:17.869Z,41.37
2019-06-01T12:54:53.098Z,41.16
2019-06-01T12:56:28.580Z,41.01
2019-06-01T12:58:03.355Z,40.83
2019-06-01T12:59:38.649Z,40.76
2019-06-01T13:01:13.301Z,40.61
2019-06-01T13:02:56.752Z,41.24
2019-06-01T13:04:25.467Z,40.52
2019-06-01T13:06:00.697Z,41.11
2019-06-01T13:07:50.980Z,41.08
2019-06-01T13:09:13.555Z,41.02
2019-06-01T13:10:48.210Z,41.33
2019-06-01T13:12:23.851Z,40.59
2019-06-01T13:13:58.557Z,40.38
2019-06-01T13:15:33.895Z,41.65
2019-06-01T13:17:08.526Z,40.99
2019-06-01T13:18:45.591Z,40.83
2019-06-01T13:20:21.407Z,40.64
2019-06-01T13:21:56.635Z,41.78
2019-06-01T13:23:31.267Z,40.87
2019-06-01T13:25:06.805Z,41.49
2019-06-01T13:26:41.846Z,41.97
2019-06-01T13:28:17.153Z,42.39
2019-06-01T13:29:52.253Z,42.48
2019-06-01T13:31:27.646Z,41.96
2019-06-01T13:33:02.288Z,42.09
2019-06-01T13:34:37.558Z,42.42
2019-06-01T13:36:13.174Z,42.11
2019-06-01T13:37:48.851Z,42.18
2019-06-01T13:39:23.627Z,41.78
2019-06-01T13:40:58.829Z,41.99
2019-06-01T13:42:33.517Z,42.11
2019-06-01T13:44:08.828Z,42.01
2019-06-01T13:45:43.445Z,41.92
2019-06-01T13:47:18.735Z,42.78
2019-06-01T13:48:54.286Z,42.13
2019-06-01T13:50:30.613Z,41.64
2019-06-01T13:52:05.429Z,41.73
2019-06-01T13:53:40.794Z,41.67
2019-06-01T13:55:15.417Z,42.10
2019-06-01T13:56:51.012Z,41.50
2019-06-01T13:58:25.778Z,42.27
2019-06-01T14:00:01.014Z,41.50
2019-06-01T14:01:35.654Z,41.00
2019-06-01T14:03:10.939Z,41.28
2019-06-01T14:04:45.586Z,42.04
2019-06-01T14:06:20.824Z,41.38
2019-06-01T14:07:55.790Z,40.63
2019-06-01T14:09:32.023Z,40.76
2019-06-01T14:11:06.715Z,40.97
2019-06-01T14:12:41.933Z,40.99
2019-06-01T14:14:16.597Z,41.53
2019-06-01T14:15:51.831Z,41.33
2019-06-01T14:17:26.480Z,41.18
2019-06-01T14:19:01.785Z,40.69
2019-06-01T14:20:36.552Z,41.39
2019-06-01T14:22:11.791Z,41.21
2019-06-01T14:23:47.638Z,41.40
2019-06-01T14:25:22.978Z,41.34
2019-06-01T14:26:57.602Z,40.59
2019-06-01T14:28:32.828Z,40.83
2019-06-01T14:30:08.135Z,40.25
2019-06-01T14:31:43.392Z,40.63
2019-06-01T14:33:18.109Z,40.72
2019-06-01T14:34:53.668Z,41.03
2019-06-01T14:36:29.572Z,40.83
2019-06-01T14:38:04.961Z,41.23
2019-06-01T14:39:39.618Z,41.01
2019-06-01T14:41:14.848Z,41.25
2019-06-01T14:42:49.586Z,41.60
2019-06-01T14:44:25.884Z,41.62
2019-06-01T14:46:00.559Z,41.95
2019-06-01T14:47:35.811Z,41.77
2019-06-01T14:49:10.537Z,42.70
2019-06-01T14:50:47.538Z,42.71
2019-06-01T14:52:22.216Z,43.13
2019-06-01T14:53:57.942Z,42.93
2019-06-01T14:55:32.673Z,42.23
2019-06-01T14:57:07.980Z,42.71
2019-06-01T14:58:42.648Z,42.26
2019-06-01T15:00:18.743Z,42.89
2019-06-01T15:01:56.171Z,42.55
2019-06-01T15:03:31.541Z,42.72
2019-06-01T15:05:08.112Z,42.55
2019-06-01T15:06:43.355Z,42.59
2019-06-01T15:08:18.082Z,42.67
2019-06-01T15:09:54.294Z,42.83
2019-06-01T15:11:29.036Z,43.36
2019-06-01T15:13:04.304Z,43.50
2019-06-01T15:14:38.971Z,43.52
2019-06-01T15:16:14.220Z,42.97
2019-06-01T15:17:49.318Z,43.48
2019-06-01T15:19:24.578Z,43.84
2019-06-01T15:20:59.298Z,43.92
2019-06-01T15:22:34.580Z,43.70
2019-06-01T15:24:09.214Z,43.92
2019-06-01T15:25:44.460Z,43.63
2019-06-01T15:27:19.172Z,43.87
2019-06-01T15:28:54.761Z,43.99
2019-06-01T15:30:29.489Z,43.63
2019-06-01T15:32:04.748Z,43.69
2019-06-01T15:33:39.402Z,43.81
2019-06-01T15:35:14.825Z,43.87
2019-06-01T15:36:49.500Z,43.94
2019-06-01T15:38:24.989Z,43.90
2019-06-01T15:39:59.799Z,43.84
2019-06-01T15:41:35.038Z,44.00
2019-06-01T15:43:09.682Z,44.00
2019-06-01T15:44:45.004Z,43.66
2019-06-01T15:46:19.646Z,44.17
2019-06-01T15:47:55.541Z,44.05
2019-06-01T15:49:30.330Z,43.93
2019-06-01T15:51:07.362Z,43.85
2019-06-01T15:52:42.265Z,44.18
2019-06-01T15:54:17.494Z,44.42
2019-06-01T15:55:52.275Z,43.99
2019-06-01T15:57:27.458Z,44.09
2019-06-01T15:59:02.831Z,44.49
2019-06-01T16:00:38.248Z,44.27
2019-06-01T16:02:13.044Z,44.29
2019-06-01T16:03:48.279Z,44.64
2019-06-01T16:05:22.915Z,44.22
2019-06-01T16:06:59.245Z,44.34
2019-06-01T16:08:34.030Z,44.16
2019-06-01T16:10:10.403Z,44.18
2019-06-01T16:11:45.035Z,43.83
2019-06-01T16:13:20.296Z,44.12
2019-06-01T16:14:55.389Z,43.86
2019-06-01T16:16:30.741Z,44.29
2019-06-01T16:18:05.621Z,44.09
2019-06-01T16:19:40.922Z,44.34
2019-06-01T16:21:15.785Z,44.21
2019-06-01T16:22:51.025Z,44.39
2019-06-01T16:24:25.692Z,44.49
2019-06-01T16:26:09.417Z,44.73
2019-06-01T16:27:37.395Z,45.54
2019-06-01T16:29:12.615Z,44.78
2019-06-01T16:30:47.264Z,45.23
2019-06-01T16:32:22.479Z,44.79
2019-06-01T16:33:57.115Z,44.79
2019-06-01T16:35:32.391Z,44.48
2019-06-01T16:37:07.051Z,44.11
2019-06-01T16:38:42.292Z,44.41
2019-06-01T16:40:17.217Z,44.72
2019-06-01T16:41:52.460Z,44.87
2019-06-01T16:43:27.095Z,45.12
2019-06-01T16:45:03.574Z,44.94
2019-06-01T16:46:39.922Z,45.12
2019-06-01T16:48:15.160Z,45.23
2019-06-01T16:49:49.820Z,45.42
2019-06-01T16:51:25.042Z,45.53
2019-06-01T16:53:00.211Z,46.24
2019-06-01T16:54:35.535Z,45.47
2019-06-01T16:56:11.371Z,45.46
2019-06-01T16:57:46.612Z,45.77
2019-06-01T16:59:21.562Z,45.75
2019-06-01T17:00:56.808Z,45.71
2019-06-01T17:02:31.518Z,46.39
2019-06-01T17:04:06.844Z,45.68
2019-06-01T17:05:42.652Z,45.62
2019-06-01T17:07:17.903Z,45.75
2019-06-01T17:08:52.551Z,45.19
2019-06-01T17:10:27.867Z,45.45
2019-06-01T17:12:03.150Z,45.22
2019-06-01T17:13:38.398Z,45.18
2019-06-01T17:15:13.836Z,45.93
2019-06-01T17:16:49.068Z,45.73
2019-06-01T17:18:23.707Z,46.22
2019-06-01T17:19:59.058Z,46.32
2019-06-01T17:21:33.701Z,46.61
2019-06-01T17:23:24.462Z,47.06
2019-06-01T17:24:45.300Z,46.83
2019-06-01T17:26:20.562Z,47.46
2019-06-01T17:27:55.519Z,46.21
2019-06-01T17:29:30.734Z,46.13
2019-06-01T17:31:08.543Z,46.16
2019-06-01T17:32:43.871Z,46.28
2019-06-01T17:34:18.528Z,45.74
2019-06-01T17:35:53.777Z,45.69
2019-06-01T17:37:28.573Z,45.63
2019-06-01T17:39:03.968Z,46.43
2019-06-01T17:40:42.752Z,46.73
2019-06-01T17:42:15.673Z,46.59
2019-06-01T17:43:50.371Z,46.81
2019-06-01T17:45:25.678Z,47.44
2019-06-01T17:47:00.395Z,47.75
2019-06-01T17:48:35.709Z,47.96
2019-06-01T17:50:11.781Z,47.59
2019-06-01T17:51:48.328Z,47.52
2019-06-01T17:53:22.982Z,47.80
2019-06-01T17:54:58.205Z,47.73
2019-06-01T17:56:32.865Z,47.19
2019-06-01T17:58:10.056Z,48.24
2019-06-01T17:59:44.908Z,48.16
2019-06-01T18:01:20.119Z,48.38
2019-06-01T18:02:54.838Z,47.82
2019-06-01T18:04:31.645Z,48.08
2019-06-01T18:06:06.302Z,47.89
2019-06-01T18:07:41.528Z,48.08
2019-06-01T18:09:16.259Z,47.78
2019-06-01T18:10:54.519Z,47.62
2019-06-01T18:12:29.021Z,48.19
2019-06-01T18:14:04.273Z,48.13
2019-06-01T18:15:43.371Z,48.91
2019-06-01T18:17:19.023Z,48.62
2019-06-01T18:18:53.757Z,48.80
2019-06-01T18:20:28.961Z,48.54
2019-06-01T18:22:04.629Z,49.01
2019-06-01T18:23:40.046Z,49.16
2019-06-01T18:25:22.735Z,49.65
2019-06-01T18:26:59.069Z,49.83
2019-06-01T18:28:33.691Z,49.79
2019-06-01T18:30:09.010Z,50.03
2019-06-01T18:31:43.727Z,50.29
2019-06-01T18:33:19.037Z,50.32
2019-06-01T18:34:53.692Z,50.57
2019-06-01T18:36:29.110Z,50.54
2019-06-01T18:38:03.977Z,50.89
2019-06-01T18:39:39.216Z,50.72
2019-06-01T18:41:18.372Z,50.92
2019-06-01T18:42:51.534Z,51.09
2019-06-01T18:44:26.191Z,51.26
2019-06-01T18:46:01.552Z,51.27
2019-06-01T18:47:36.290Z,51.15
2019-06-01T18:49:17.951Z,51.27
2019-06-01T18:50:50.347Z,51.42
2019-06-01T18:52:25.609Z,51.52
2019-06-01T18:54:00.293Z,51.33
2019-06-01T18:55:36.572Z,51.53
2019-06-01T18:57:19.217Z,51.81
2019-06-01T18:58:48.255Z,52.12
2019-06-01T19:00:22.945Z,52.05
2019-06-01T19:01:58.256Z,52.39
2019-06-01T19:03:32.945Z,52.67
2019-06-01T19:05:09.175Z,52.56
2019-06-01T19:06:44.337Z,52.82
2019-06-01T19:08:19.589Z,52.99
2019-06-01T19:09:54.244Z,53.11
2019-06-01T19:11:35.923Z,53.62
2019-06-01T19:13:06.120Z,53.64
2019-06-01T19:14:41.385Z,53.85
2019-06-01T19:16:17.693Z,53.89
2019-06-01T19:17:52.976Z,53.77
2019-06-01T19:19:27.623Z,53.95
2019-06-01T19:21:02.932Z,54.26
2019-06-01T19:22:37.600Z,54.34
2019-06-01T19:24:12.839Z,54.30
2019-06-01T19:25:47.575Z,54.59
2019-06-01T19:27:22.885Z,54.63
2019-06-01T19:28:57.532Z,54.73
2019-06-01T19:30:37.861Z,55.17
2019-06-01T19:32:12.905Z,55.17
2019-06-01T19:33:48.116Z,55.55
2019-06-01T19:35:23.067Z,55.86
2019-06-01T19:36:59.068Z,56.28
2019-06-01T19:38:34.246Z,56.32
2019-06-01T19:40:11.348Z,56.39
2019-06-01T19:41:46.256Z,56.65
2019-06-01T19:43:21.545Z,56.69
2019-06-01T19:44:56.197Z,57.32
2019-06-01T19:46:31.454Z,57.42
2019-06-01T19:48:08.236Z,57.80
2019-06-01T19:49:44.078Z,57.70
2019-06-01T19:51:18.914Z,58.36
2019-06-01T19:52:54.121Z,58.77
2019-06-01T19:54:28.767Z,58.89
2019-06-01T19:56:04.380Z,59.08
2019-06-01T19:57:39.040Z,59.63
2019-06-01T19:59:14.274Z,59.56
2019-06-01T20:00:49.033Z,60.09
2019-06-01T20:02:33.274Z,60.31
2019-06-01T20:04:00.575Z,60.45
2019-06-01T20:05:35.956Z,61.22
2019-06-01T20:07:11.068Z,61.16
2019-06-01T20:08:46.351Z,61.53
2019-06-01T20:10:21.011Z,61.27
2019-06-01T20:12:01.951Z,61.10
2019-06-01T20:13:32.576Z,61.31
2019-06-01T20:15:08.782Z,61.95
2019-06-01T20:16:43.475Z,62.03
2019-06-01T20:18:19.134Z,61.83
2019-06-01T20:19:53.940Z,62.47
2019-06-01T20:21:29.195Z,62.71
2019-06-01T20:23:03.839Z,63.07
2019-06-01T20:24:39.135Z,63.26
2019-06-01T20:26:13.799Z,63.16
2019-06-01T20:27:49.177Z,63.57